Time;durP1;ratioP1;P1;durP2;ratioP2;P2;SDS_P1;SDS_P2;PMS_P1;PMS_P2;Temp;Humidity;BMP_temperature;BMP_pressure;BME280_temperature;BME280_humidity;BME280_pressure;Samples;Min_cycle;Max_cycle;Signal;HPM_P1;HPM_P2
2021/03/23 00:00:33;;;;;;;8.60;4.27;;;7.00;68.60;;;;;;6245787;23;20118;-74
2021/03/23 00:03:13;;;;;;;9.57;3.63;;;7.00;68.60;;;;;;6218540;23;20040;-74
2021/03/23 00:05:39;;;;;;;12.27;4.00;;;6.90;69.00;;;;;;6217985;23;19996;-74
2021/03/23 00:08:07;;;;;;;12.03;4.70;;;6.90;69.10;;;;;;6218371;23;20446;-74
2021/03/23 00:10:33;;;;;;;11.47;4.67;;;6.90;69.30;;;;;;6217954;23;20066;-74
2021/03/23 00:12:59;;;;;;;12.83;4.40;;;6.90;69.30;;;;;;6218235;23;20007;-75
2021/03/23 00:15:25;;;;;;;7.13;4.13;;;6.90;69.40;;;;;;6217130;23;20047;-75
2021/03/23 00:17:51;;;;;;;10.30;4.33;;;6.90;69.90;;;;;;6244950;23;20179;-75
2021/03/23 00:20:22;;;;;;;10.87;4.50;;;6.80;69.90;;;;;;6218383;23;20392;-74
2021/03/23 00:22:47;;;;;;;11.23;4.40;;;6.80;69.90;;;;;;6244842;23;20000;-75
2021/03/23 00:25:13;;;;;;;9.87;3.97;;;6.80;69.90;;;;;;6218031;23;20038;-74
2021/03/23 00:27:39;;;;;;;9.97;4.50;;;6.90;69.80;;;;;;6244287;23;20026;-75
2021/03/23 00:30:12;;;;;;;10.80;4.50;;;6.90;69.70;;;;;;6218342;23;20004;-74
2021/03/23 00:32:37;;;;;;;11.20;4.40;;;6.90;69.70;;;;;;6217644;23;20011;-74
2021/03/23 00:35:06;;;;;;;11.93;5.27;;;6.90;69.70;;;;;;6244209;23;20004;-74
2021/03/23 00:37:32;;;;;;;12.00;4.50;;;6.80;70.00;;;;;;6243998;23;20001;-74
2021/03/23 00:39:59;;;;;;;9.07;4.33;;;6.80;70.10;;;;;;6244804;23;20078;-74
2021/03/23 00:42:24;;;;;;;12.90;4.50;;;6.80;70.20;;;;;;6216950;23;20390;-74
2021/03/23 00:44:51;;;;;;;14.90;4.67;;;6.80;70.20;;;;;;6244620;23;20035;-75
2021/03/23 00:47:17;;;;;;;11.87;4.70;;;6.80;70.40;;;;;;6212834;23;20059;-74
2021/03/23 00:49:43;;;;;;;11.07;4.63;;;6.80;70.40;;;;;;6212173;23;20084;-74
2021/03/23 00:52:08;;;;;;;10.33;4.97;;;6.80;70.40;;;;;;6212811;23;20005;-74
2021/03/23 00:54:34;;;;;;;11.97;4.23;;;6.90;70.30;;;;;;6212187;23;20427;-75
2021/03/23 00:57:00;;;;;;;12.80;4.37;;;6.80;70.40;;;;;;6212382;23;20493;-75
2021/03/23 00:59:26;;;;;;;10.63;4.30;;;6.90;70.40;;;;;;6212102;23;20367;-75
2021/03/23 01:01:52;;;;;;;9.83;4.20;;;6.90;70.40;;;;;;6212981;23;20009;-74
2021/03/23 01:04:17;;;;;;;8.13;4.30;;;6.90;70.10;;;;;;6213103;23;20008;-75
2021/03/23 01:06:43;;;;;;;12.30;4.17;;;6.90;70.20;;;;;;6213377;23;20000;-75
2021/03/23 01:09:09;;;;;;;10.27;4.47;;;6.90;70.10;;;;;;6212945;23;20009;-75
2021/03/23 01:11:34;;;;;;;10.50;4.13;;;6.90;70.50;;;;;;6212092;23;20000;-74
2021/03/23 01:14:00;;;;;;;11.77;4.60;;;6.80;70.60;;;;;;6212450;23;20005;-74
2021/03/23 01:16:26;;;;;;;8.47;4.43;;;6.70;71.00;;;;;;6212193;23;20014;-76
2021/03/23 01:18:51;;;;;;;13.17;4.97;;;6.80;71.00;;;;;;6212731;23;20001;-75
2021/03/23 01:21:17;;;;;;;10.03;4.53;;;6.80;71.10;;;;;;6212602;23;20040;-74
2021/03/23 01:23:43;;;;;;;12.87;4.77;;;6.70;71.30;;;;;;6211159;23;20013;-74
2021/03/23 01:26:09;;;;;;;7.50;3.93;;;6.70;71.60;;;;;;6213030;23;20011;-74
2021/03/23 01:28:34;;;;;;;8.83;4.50;;;6.70;71.80;;;;;;6212006;23;20375;-75
2021/03/23 01:31:00;;;;;;;10.97;4.73;;;6.70;71.80;;;;;;6214446;23;19997;-75
2021/03/23 01:33:26;;;;;;;11.17;4.43;;;6.70;71.70;;;;;;6213907;23;20004;-76
2021/03/23 01:35:51;;;;;;;10.27;5.10;;;6.70;71.70;;;;;;6214294;23;20035;-74
2021/03/23 01:38:17;;;;;;;12.67;4.93;;;6.70;71.90;;;;;;6212951;23;20305;-75
2021/03/23 01:40:44;;;;;;;14.40;5.07;;;6.70;72.00;;;;;;6213362;23;20141;-74
2021/03/23 01:43:23;;;;;;;10.03;4.47;;;6.70;72.10;;;;;;6212593;23;20012;-75
2021/03/23 01:45:49;;;;;;;10.30;4.50;;;6.70;72.00;;;;;;6211983;23;20012;-74
2021/03/23 01:48:28;;;;;;;11.97;4.50;;;6.70;71.80;;;;;;6212227;23;20172;-76
2021/03/23 01:51:06;;;;;;;12.90;4.60;;;6.80;71.70;;;;;;6212799;23;20103;-75
2021/03/23 01:53:45;;;;;;;10.03;5.27;;;6.70;71.80;;;;;;6211617;23;20008;-75
2021/03/23 01:56:13;;;;;;;11.40;5.10;;;6.70;71.80;;;;;;6213210;23;20364;-75
2021/03/23 01:58:47;;;;;;;10.87;4.30;;;6.70;72.00;;;;;;6211921;23;20107;-74
2021/03/23 02:01:16;;;;;;;10.83;4.53;;;6.70;72.20;;;;;;6212883;23;20000;-75
2021/03/23 02:03:43;;;;;;;11.40;4.53;;;6.70;72.00;;;;;;6212999;23;20036;-75
2021/03/23 02:06:44;;;;;;;12.53;4.90;;;6.70;72.00;;;;;;6214922;23;20040;-75
2021/03/23 02:09:16;;;;;;;10.40;4.60;;;6.70;72.30;;;;;;6214286;23;20001;-75
2021/03/23 02:12:00;;;;;;;11.17;5.10;;;6.70;72.70;;;;;;6213779;23;20008;-75
2021/03/23 02:14:29;;;;;;;11.90;4.60;;;6.60;72.40;;;;;;6214480;23;20055;-76
2021/03/23 02:17:24;;;;;;;13.07;5.50;;;6.60;72.10;;;;;;6215983;23;20005;-75
2021/03/23 02:19:59;;;;;;;13.50;5.53;;;6.70;71.90;;;;;;6213324;23;20004;-74
2021/03/23 02:22:34;;;;;;;13.03;5.30;;;6.70;72.00;;;;;;6214425;23;20005;-75
2021/03/23 02:25:02;;;;;;;9.93;4.73;;;6.70;72.30;;;;;;6214020;23;20001;-75
2021/03/23 02:27:29;;;;;;;16.17;5.50;;;6.70;72.00;;;;;;6214253;23;20011;-76
2021/03/23 02:29:59;;;;;;;13.60;5.33;;;6.70;71.70;;;;;;6214419;23;20012;-75
2021/03/23 02:32:24;;;;;;;15.87;5.90;;;6.80;71.60;;;;;;6214432;23;20007;-74
2021/03/23 02:34:50;;;;;;;11.47;5.30;;;6.80;71.70;;;;;;6213128;23;20032;-75
2021/03/23 02:37:16;;;;;;;12.90;5.37;;;6.70;71.80;;;;;;6216115;23;20001;-75
2021/03/23 02:39:43;;;;;;;12.50;5.40;;;6.70;71.90;;;;;;6213775;23;20075;-75
2021/03/23 02:42:09;;;;;;;14.47;5.77;;;6.70;72.10;;;;;;6214650;23;20005;-74
2021/03/23 02:44:46;;;;;;;13.50;5.67;;;6.60;72.50;;;;;;6213280;23;20091;-75
2021/03/23 02:47:14;;;;;;;9.53;4.80;;;6.60;72.60;;;;;;6219277;23;20023;-75
2021/03/23 02:49:41;;;;;;;9.47;5.47;;;6.60;72.70;;;;;;6245257;23;19996;-75
2021/03/23 02:52:08;;;;;;;16.03;5.10;;;6.60;72.70;;;;;;6219780;23;20311;-73
2021/03/23 02:54:34;;;;;;;12.57;5.33;;;6.60;72.80;;;;;;6244545;23;20509;-75
2021/03/23 02:56:59;;;;;;;13.00;5.67;;;6.60;72.90;;;;;;6246124;23;20023;-75
2021/03/23 02:59:25;;;;;;;11.00;4.67;;;6.60;72.90;;;;;;6219311;23;20427;-75
2021/03/23 03:01:51;;;;;;;14.83;5.70;;;6.60;73.10;;;;;;6245095;23;19993;-74
2021/03/23 03:04:17;;;;;;;13.80;4.73;;;6.70;72.90;;;;;;6219083;23;20012;-75
2021/03/23 03:06:42;;;;;;;14.47;5.00;;;6.60;73.00;;;;;;6217471;23;20050;-75
2021/03/23 03:09:08;;;;;;;8.73;4.87;;;6.60;73.00;;;;;;6218949;23;20039;-73
2021/03/23 03:11:34;;;;;;;10.97;4.67;;;6.60;72.90;;;;;;6218328;23;19996;-75
2021/03/23 03:14:00;;;;;;;10.57;4.93;;;6.70;72.70;;;;;;6245749;23;20000;-74
2021/03/23 03:16:26;;;;;;;14.03;5.10;;;6.70;72.40;;;;;;6219102;23;20098;-74
2021/03/23 03:18:51;;;;;;;14.93;5.47;;;6.80;72.30;;;;;;6218045;23;20059;-75
2021/03/23 03:21:18;;;;;;;15.10;5.40;;;6.80;72.40;;;;;;6218869;23;20423;-74
2021/03/23 03:23:44;;;;;;;13.00;4.80;;;6.80;72.40;;;;;;6217286;23;20016;-74
2021/03/23 03:26:10;;;;;;;9.37;4.73;;;6.70;72.70;;;;;;6219139;23;20004;-74
2021/03/23 03:28:36;;;;;;;10.40;5.07;;;6.60;72.70;;;;;;6218293;23;20004;-75
2021/03/23 03:31:02;;;;;;;16.83;5.33;;;6.60;73.80;;;;;;6218617;23;20054;-75
2021/03/23 03:33:28;;;;;;;10.57;4.90;;;6.70;73.60;;;;;;6218904;23;20611;-75
2021/03/23 03:35:54;;;;;;;11.40;5.13;;;6.70;73.40;;;;;;6218217;23;20024;-75
2021/03/23 03:38:22;;;;;;;11.80;5.50;;;6.70;73.20;;;;;;6218965;23;20004;-74
2021/03/23 03:40:54;;;;;;;14.40;5.10;;;6.70;72.90;;;;;;6218052;23;20000;-75
2021/03/23 03:43:22;;;;;;;13.37;5.60;;;6.70;73.00;;;;;;6218988;23;20063;-74
2021/03/23 03:45:48;;;;;;;15.27;5.07;;;6.70;72.90;;;;;;6244330;23;20001;-75
2021/03/23 03:48:14;;;;;;;9.97;4.60;;;6.70;72.90;;;;;;6218496;23;20020;-76
2021/03/23 03:50:40;;;;;;;10.63;4.93;;;6.70;73.00;;;;;;6218178;23;20011;-75
2021/03/23 03:53:07;;;;;;;10.27;4.90;;;6.70;73.00;;;;;;6218830;23;20052;-75
2021/03/23 03:55:36;;;;;;;14.70;5.00;;;6.60;73.10;;;;;;6218284;23;20428;-76
2021/03/23 03:58:02;;;;;;;12.37;5.23;;;6.60;73.10;;;;;;6218808;23;20010;-75
2021/03/23 04:00:30;;;;;;;11.33;5.20;;;6.60;73.10;;;;;;6218737;23;20083;-75
2021/03/23 04:02:57;;;;;;;10.83;5.43;;;6.70;73.80;;;;;;6218060;23;20008;-75
2021/03/23 04:05:30;;;;;;;11.50;5.37;;;6.60;73.20;;;;;;6218942;23;20427;-75
2021/03/23 04:07:56;;;;;;;13.43;5.20;;;6.60;73.50;;;;;;6218069;23;20009;-74
2021/03/23 04:10:23;;;;;;;10.97;4.80;;;6.60;73.60;;;;;;6218962;23;20003;-74
2021/03/23 04:12:49;;;;;;;13.70;4.73;;;6.50;73.80;;;;;;6244719;23;20027;-75
2021/03/23 04:15:18;;;;;;;12.07;5.20;;;6.50;73.90;;;;;;6218049;23;20008;-74
2021/03/23 04:17:44;;;;;;;11.27;5.07;;;6.60;73.80;;;;;;6217808;23;20082;-74
2021/03/23 04:20:11;;;;;;;11.33;5.33;;;6.60;73.50;;;;;;6218428;23;20370;-74
2021/03/23 04:22:36;;;;;;;11.50;4.83;;;6.60;73.20;;;;;;6216984;23;20328;-74
2021/03/23 04:25:03;;;;;;;12.53;5.60;;;6.60;73.40;;;;;;6244738;23;19996;-74
2021/03/23 04:27:29;;;;;;;10.97;4.90;;;6.60;73.60;;;;;;6218571;23;20004;-73
2021/03/23 04:29:54;;;;;;;10.00;5.10;;;6.60;73.80;;;;;;6218055;23;20000;-74
2021/03/23 04:32:20;;;;;;;12.00;5.63;;;6.50;74.00;;;;;;6244963;23;20000;-74
2021/03/23 04:34:46;;;;;;;14.33;5.07;;;6.50;74.10;;;;;;6217285;23;20435;-74
2021/03/23 04:37:11;;;;;;;14.27;5.50;;;6.50;74.20;;;;;;6218552;23;20035;-74
2021/03/23 04:39:37;;;;;;;11.93;5.40;;;6.50;74.60;;;;;;6217527;23;19993;-76
2021/03/23 04:42:03;;;;;;;15.33;5.50;;;6.50;74.70;;;;;;6218017;23;20102;-75
2021/03/23 04:44:28;;;;;;;15.93;5.17;;;6.40;74.80;;;;;;6216890;23;20076;-75
2021/03/23 04:46:54;;;;;;;11.10;5.30;;;6.40;75.10;;;;;;6211769;23;20515;-74
2021/03/23 04:49:20;;;;;;;12.20;5.17;;;6.50;75.10;;;;;;6214691;23;19996;-74
2021/03/23 04:51:45;;;;;;;16.03;5.70;;;6.40;75.30;;;;;;6212302;23;20001;-75
2021/03/23 04:54:11;;;;;;;9.10;5.47;;;6.40;75.50;;;;;;6213121;23;20009;-74
2021/03/23 04:56:42;;;;;;;12.23;5.10;;;6.40;75.60;;;;;;6212278;23;20001;-76
2021/03/23 04:59:08;;;;;;;13.10;5.30;;;6.40;75.70;;;;;;6213076;23;20461;-75
2021/03/23 05:01:35;;;;;;;13.63;5.57;;;6.30;75.80;;;;;;6212853;23;20424;-76
2021/03/23 05:04:04;;;;;;;16.20;5.07;;;6.30;75.90;;;;;;6212500;23;20017;-74
2021/03/23 05:06:30;;;;;;;17.13;5.07;;;6.30;75.90;;;;;;6213096;23;20054;-74
2021/03/23 05:08:55;;;;;;;12.70;5.30;;;6.30;75.80;;;;;;6212042;23;20420;-74
2021/03/23 05:11:25;;;;;;;11.70;5.27;;;6.30;75.40;;;;;;6212751;23;20036;-74
2021/03/23 05:13:51;;;;;;;12.50;5.13;;;6.40;75.20;;;;;;6212035;23;20005;-74
2021/03/23 05:16:18;;;;;;;14.53;5.73;;;6.30;74.90;;;;;;6214023;23;20016;-74
2021/03/23 05:18:43;;;;;;;14.50;5.43;;;6.30;74.90;;;;;;6211433;23;20007;-74
2021/03/23 05:21:09;;;;;;;13.37;4.93;;;6.30;74.70;;;;;;6214587;23;20550;-74
2021/03/23 05:23:35;;;;;;;12.83;5.23;;;6.30;74.80;;;;;;6214278;23;20071;-75
2021/03/23 05:26:01;;;;;;;16.97;5.83;;;6.40;74.70;;;;;;6212428;23;20432;-74
2021/03/23 05:28:27;;;;;;;12.43;5.07;;;6.40;74.60;;;;;;6214251;23;20023;-74
2021/03/23 05:30:53;;;;;;;11.40;5.50;;;6.40;74.70;;;;;;6212041;23;20001;-74
2021/03/23 05:33:19;;;;;;;13.77;5.90;;;6.30;74.90;;;;;;6212852;23;20064;-74
2021/03/23 05:35:45;;;;;;;11.20;5.27;;;6.30;74.90;;;;;;6212052;23;20008;-75
2021/03/23 05:38:11;;;;;;;17.23;5.87;;;6.30;74.90;;;;;;6215033;23;20005;-75
2021/03/23 05:40:47;;;;;;;14.57;5.60;;;6.30;75.00;;;;;;6214285;23;20094;-76
2021/03/23 05:43:30;;;;;;;13.17;5.83;;;6.40;74.90;;;;;;6214921;23;20013;-74
2021/03/23 05:46:16;;;;;;;12.03;5.10;;;6.30;75.00;;;;;;6213698;23;20084;-76
2021/03/23 05:48:53;;;;;;;12.63;5.70;;;6.40;75.80;;;;;;6188921;23;20087;-76
2021/03/23 05:51:25;;;;;;;13.47;5.40;;;6.40;75.00;;;;;;6189860;23;20012;-74
2021/03/23 05:54:05;;;;;;;11.60;4.72;;;6.40;75.00;;;;;;6189051;23;20000;-74
2021/03/23 05:56:38;;;;;;;11.13;4.93;;;6.40;74.90;;;;;;6190023;23;20001;-74
2021/03/23 05:59:17;;;;;;;11.23;4.60;;;6.40;75.00;;;;;;6189202;23;20028;-74
2021/03/23 06:01:53;;;;;;;16.20;5.23;;;6.40;75.10;;;;;;6189162;23;20001;-75
2021/03/23 06:04:43;;;;;;;13.20;5.53;;;6.40;75.10;;;;;;6190094;23;20463;-75
2021/03/23 06:07:14;;;;;;;10.73;5.10;;;6.40;75.00;;;;;;6189857;23;20000;-74
2021/03/23 06:09:41;;;;;;;13.03;5.40;;;6.40;75.10;;;;;;6188873;23;20366;-75
2021/03/23 06:12:18;;;;;;;13.00;5.37;;;6.40;75.10;;;;;;6189918;23;20004;-73
2021/03/23 06:15:24;;;;;;;12.27;5.27;;;6.40;75.30;;;;;;6188723;23;20024;-75
2021/03/23 06:18:24;;;;;;;13.23;5.50;;;6.50;75.20;;;;;;6184673;23;20126;-75
2021/03/23 06:21:19;;;;;;;14.87;4.90;;;6.50;75.30;;;;;;6188675;23;20007;-75
2021/03/23 06:23:59;;;;;;;12.23;5.30;;;6.50;75.40;;;;;;6188898;23;20107;-75
2021/03/23 06:26:45;;;;;;;11.37;5.23;;;6.50;76.10;;;;;;6189485;23;20012;-75
2021/03/23 06:29:47;;;;;;;14.40;4.90;;;6.50;75.30;;;;;;6189717;23;20427;-75
2021/03/23 06:32:41;;;;;;;14.48;5.00;;;6.50;75.60;;;;;;6188878;23;20023;-75
2021/03/23 06:35:12;;;;;;;13.07;5.03;;;6.50;75.60;;;;;;6188992;23;20000;-75
2021/03/23 06:37:40;;;;;;;10.13;4.73;;;6.60;75.60;;;;;;6189570;23;20086;-75
2021/03/23 06:40:26;;;;;;;10.93;4.70;;;6.70;75.70;;;;;;6188989;23;20005;-75
2021/03/23 06:42:55;;;;;;;9.80;4.73;;;6.70;75.40;;;;;;6214450;23;20001;-75
2021/03/23 06:45:34;;;;;;;10.03;4.87;;;6.70;75.10;;;;;;6215443;23;20032;-75
2021/03/23 06:48:28;;;;;;;11.37;4.90;;;6.70;75.30;;;;;;6211238;23;20171;-74
2021/03/23 06:51:17;;;;;;;11.03;4.70;;;6.70;75.60;;;;;;6213280;23;20435;-75
2021/03/23 06:53:44;;;;;;;12.77;5.23;;;6.70;75.60;;;;;;6218624;23;20015;-76
2021/03/23 06:56:26;;;;;;;10.13;4.80;;;6.80;75.60;;;;;;6219491;23;20036;-74
2021/03/23 06:59:12;;;;;;;;;;;6.80;75.50;;;;;;6218659;23;20000;-75
2021/03/23 07:01:46;;;;;;;13.83;4.80;;;6.80;75.40;;;;;;6218958;23;19907;-75
2021/03/23 07:04:41;;;;;;;11.40;4.50;;;6.80;75.20;;;;;;6219179;23;20054;-75
2021/03/23 07:07:18;;;;;;;11.87;5.10;;;6.80;75.50;;;;;;6218513;23;20000;-75
2021/03/23 07:09:56;;;;;;;13.30;5.27;;;6.90;75.60;;;;;;6218354;23;20007;-77
2021/03/23 07:12:46;;;;;;;16.27;6.13;;;6.90;75.80;;;;;;6214668;23;20028;-75
2021/03/23 07:15:20;;;;;;;15.90;6.23;;;7.00;75.10;;;;;;6218956;23;20576;-75
2021/03/23 07:18:13;;;;;;;15.97;6.10;;;7.00;74.40;;;;;;6218209;23;20005;-76
2021/03/23 07:20:44;;;;;;;15.97;6.27;;;7.10;73.80;;;;;;6217512;23;20008;-74
2021/03/23 07:23:30;;;;;;;15.27;6.93;;;7.10;73.40;;;;;;6218384;23;20439;-75
2021/03/23 07:26:12;;;;;;;18.77;6.53;;;7.20;73.30;;;;;;6217791;23;20000;-74
2021/03/23 07:28:40;;;;;;;15.77;6.45;;;7.20;73.50;;;;;;6219159;23;20000;-74
2021/03/23 07:31:05;;;;;;;13.87;6.43;;;7.20;73.60;;;;;;6217771;23;20004;-74
2021/03/23 07:34:08;;;;;;;15.17;7.03;;;7.20;73.50;;;;;;6245960;23;20075;-77
2021/03/23 07:36:41;;;;;;;13.30;6.38;;;7.30;74.00;;;;;;6220211;23;20000;-78
2021/03/23 07:39:24;;;;;;;18.70;7.23;;;7.30;72.80;;;;;;6216865;23;20013;-78
2021/03/23 07:41:56;;;;;;;18.70;7.33;;;7.30;72.90;;;;;;6218404;23;20039;-77
2021/03/23 07:44:34;;;;;;;18.80;7.70;;;7.40;72.40;;;;;;6217500;23;20447;-76
2021/03/23 07:47:05;;;;;;;23.30;7.60;;;7.50;72.30;;;;;;6244966;22;20016;-77
2021/03/23 07:49:50;;;;;;;22.77;8.23;;;7.50;72.20;;;;;;6218844;23;19996;-76
2021/03/23 07:52:31;;;;;;;19.10;8.37;;;7.50;72.30;;;;;;6219354;23;20038;-79
2021/03/23 07:55:01;;;;;;;18.10;8.23;;;7.60;72.20;;;;;;6218462;23;20004;-77
2021/03/23 07:57:52;;;;;;;18.77;8.97;;;7.70;72.20;;;;;;6218751;23;20004;-76
2021/03/23 08:00:40;;;;;;;19.50;8.77;;;7.70;72.20;;;;;;6218459;23;20004;-76
2021/03/23 08:03:18;;;;;;;22.57;9.03;;;7.70;71.40;;;;;;6217811;23;20335;-77
2021/03/23 08:06:02;;;;;;;24.43;9.27;;;7.70;71.30;;;;;;6217741;23;20087;-76
2021/03/23 08:08:52;;;;;;;19.87;8.50;;;7.80;71.00;;;;;;6218319;23;20030;-76
2021/03/23 08:11:36;;;;;;;19.73;8.67;;;7.80;70.60;;;;;;6245421;23;19992;-75
2021/03/23 08:14:13;;;;;;;22.00;8.70;;;7.80;71.30;;;;;;6217257;23;19996;-75
2021/03/23 08:17:02;;;;;;;25.47;9.00;;;7.90;71.30;;;;;;6218451;23;20424;-74
2021/03/23 08:19:35;;;;;;;23.30;8.63;;;8.00;71.00;;;;;;6218720;23;20000;-75
2021/03/23 08:22:44;;;;;;;19.20;8.30;;;8.00;71.00;;;;;;6218111;23;20000;-80
2021/03/23 08:25:41;;;;;;;19.90;8.77;;;8.10;69.90;;;;;;6245665;23;20040;-76
2021/03/23 08:28:39;;;;;;;19.63;8.80;;;8.00;69.50;;;;;;6237558;23;20049;-77
2021/03/23 08:31:23;;;;;;;20.83;8.57;;;8.10;70.00;;;;;;6217055;23;20056;-77
2021/03/23 08:34:24;;;;;;;21.40;8.73;;;8.10;69.20;;;;;;6244098;23;20077;-75
2021/03/23 08:37:17;;;;;;;21.48;8.88;;;8.10;68.90;;;;;;6244233;23;20027;-77
2021/03/23 08:40:03;;;;;;;17.17;7.93;;;8.20;68.40;;;;;;6244670;23;19999;-77
2021/03/23 08:42:31;;;;;;;22.75;8.75;;;8.20;68.80;;;;;;6217291;23;20096;-80
2021/03/23 08:45:14;;;;;;;18.67;8.68;;;8.20;68.80;;;;;;6217937;23;20054;-79
2021/03/23 08:48:02;;;;;;;18.00;8.47;;;8.30;68.50;;;;;;6245290;22;20024;-78
2021/03/23 08:50:38;;;;;;;20.70;9.33;;;8.30;68.10;;;;;;6218653;23;20050;-77
2021/03/23 08:53:31;;;;;;;20.42;8.23;;;8.40;67.90;;;;;;6217775;23;20008;-78
2021/03/23 08:55:58;;;;;;;21.00;8.70;;;8.50;66.70;;;;;;6211695;23;20510;-75
2021/03/23 08:58:52;;;;;;;22.98;8.65;;;8.60;66.70;;;;;;6245059;23;19996;-74
2021/03/23 09:01:51;;;;;;;22.08;8.95;;;8.60;66.20;;;;;;6244902;23;20524;-75
2021/03/23 09:04:28;;;;;;;22.88;8.65;;;8.60;66.20;;;;;;6162487;23;20004;-75
2021/03/23 09:06:56;;;;;;;15.73;7.82;;;8.70;66.20;;;;;;6217195;23;20008;-74
2021/03/23 09:09:25;;;;;;;17.58;7.68;;;8.80;66.60;;;;;;6218035;23;20000;-74
2021/03/23 09:12:02;;;;;;;20.48;8.45;;;8.90;66.10;;;;;;6243817;23;20082;-74
2021/03/23 09:14:30;;;;;;;21.88;8.50;;;8.90;66.10;;;;;;6217680;23;20317;-74
2021/03/23 09:16:58;;;;;;;20.95;7.97;;;9.00;65.50;;;;;;6216812;23;20031;-74
2021/03/23 09:19:32;;;;;;;17.92;8.05;;;9.00;64.70;;;;;;6217670;23;19996;-75
2021/03/23 09:21:58;;;;;;;18.80;7.95;;;9.10;63.80;;;;;;6244085;23;20000;-75
2021/03/23 09:24:39;;;;;;;19.73;8.40;;;9.20;64.00;;;;;;6217577;23;20035;-75
2021/03/23 09:27:36;;;;;;;20.90;8.15;;;9.30;62.70;;;;;;6217233;23;20014;-75
2021/03/23 09:30:21;;;;;;;17.73;7.88;;;9.30;62.10;;;;;;6217424;23;20004;-74
2021/03/23 09:33:22;;;;;;;20.10;8.10;;;9.40;62.40;;;;;;6243730;23;20004;-74
2021/03/23 09:36:13;;;;;;;18.67;7.70;;;9.50;61.70;;;;;;6169948;23;20070;-74
2021/03/23 09:38:50;;;;;;;21.38;9.43;;;9.50;61.50;;;;;;6244957;23;20000;-77
2021/03/23 09:41:27;;;;;;;23.45;8.63;;;9.40;61.00;;;;;;6244973;23;20084;-76
2021/03/23 09:44:14;;;;;;;21.17;8.85;;;9.50;60.70;;;;;;6217664;23;20367;-76
2021/03/23 09:46:48;;;;;;;19.98;8.45;;;9.50;60.80;;;;;;6244481;23;20023;-77
2021/03/23 09:49:20;;;;;;;22.10;9.15;;;9.60;61.70;;;;;;6244779;23;19996;-78
2021/03/23 09:51:52;;;;;;;19.63;8.45;;;9.60;61.10;;;;;;6218398;23;20001;-77
2021/03/23 09:54:28;;;;;;;22.60;9.38;;;9.60;61.20;;;;;;6245417;23;20004;-77
2021/03/23 09:57:00;;;;;;;22.58;9.13;;;9.70;60.30;;;;;;6243691;23;20361;-76
2021/03/23 09:59:46;;;;;;;27.35;9.75;;;9.70;60.10;;;;;;6244824;23;19996;-77
2021/03/23 10:02:17;;;;;;;23.35;9.57;;;9.80;59.70;;;;;;6217565;23;19996;-77
2021/03/23 10:04:44;;;;;;;19.77;9.00;;;9.80;59.00;;;;;;6218081;23;20019;-77
2021/03/23 10:07:29;;;;;;;24.50;10.10;;;9.80;58.60;;;;;;6217143;23;20012;-76
2021/03/23 10:10:06;;;;;;;20.17;8.85;;;9.90;58.20;;;;;;6216555;23;20366;-74
2021/03/23 10:12:32;;;;;;;22.90;10.02;;;9.90;58.00;;;;;;6217490;23;20005;-74
2021/03/23 10:14:57;;;;;;;20.45;9.50;;;10.00;58.10;;;;;;6217439;23;20004;-75
2021/03/23 10:17:28;;;;;;;19.60;9.27;;;9.90;58.10;;;;;;6244376;23;20031;-74
2021/03/23 10:20:00;;;;;;;19.25;9.07;;;9.90;58.50;;;;;;6243425;23;20003;-75
2021/03/23 10:22:28;;;;;;;21.33;9.82;;;10.00;58.60;;;;;;6244652;23;20003;-76
2021/03/23 10:24:55;;;;;;;23.00;9.43;;;10.10;57.40;;;;;;6218060;23;20091;-75
2021/03/23 10:27:31;;;;;;;22.13;9.73;;;10.20;56.60;;;;;;6219407;23;20446;-76
2021/03/23 10:29:59;;;;;;;24.15;9.50;;;10.30;56.80;;;;;;6218550;23;20129;-76
2021/03/23 10:32:49;;;;;;;20.73;9.07;;;10.40;57.50;;;;;;6219358;23;20007;-74
2021/03/23 10:35:21;;;;;;;18.70;9.25;;;10.60;58.40;;;;;;6218828;23;20087;-77
2021/03/23 10:37:47;;;;;;;21.08;9.40;;;10.60;57.20;;;;;;6219500;23;20000;-78
2021/03/23 10:40:37;;;;;;;19.67;9.23;;;10.70;56.70;;;;;;6245255;23;20000;-79
2021/03/23 10:43:03;;;;;;;19.77;8.63;;;10.70;56.40;;;;;;6218435;23;20019;-74
2021/03/23 10:45:43;;;;;;;16.33;8.30;;;10.80;56.40;;;;;;6218207;23;20004;-74
2021/03/23 10:48:27;;;;;;;15.40;7.63;;;10.80;54.90;;;;;;6218794;23;20012;-79
2021/03/23 10:51:20;;;;;;;16.08;8.05;;;10.90;54.70;;;;;;6219217;23;20415;-77
2021/03/23 10:54:07;;;;;;;20.27;8.27;;;11.00;53.30;;;;;;6219830;23;20000;-78
2021/03/23 10:56:40;;;;;;;15.38;8.07;;;11.10;53.20;;;;;;6219670;23;19996;-78
2021/03/23 10:59:12;;;;;;;16.67;8.13;;;11.20;53.00;;;;;;6245580;23;19999;-78
2021/03/23 11:01:59;;;;;;;15.02;7.72;;;11.30;52.30;;;;;;6219789;23;20004;-78
2021/03/23 11:04:25;;;;;;;16.58;7.88;;;11.20;52.70;;;;;;6219465;23;20439;-78
2021/03/23 11:06:51;;;;;;;18.38;8.30;;;11.30;52.00;;;;;;6219140;23;20099;-77
2021/03/23 11:09:18;;;;;;;15.23;7.95;;;11.30;53.60;;;;;;6218957;23;20008;-78
2021/03/23 11:11:45;;;;;;;15.95;7.40;;;11.10;53.00;;;;;;6219463;23;20011;-80
2021/03/23 11:14:11;;;;;;;13.07;7.00;;;11.10;52.60;;;;;;6218473;23;20016;-78
2021/03/23 11:16:40;;;;;;;14.10;6.75;;;11.20;52.10;;;;;;6218658;23;20005;-78
2021/03/23 11:19:31;;;;;;;12.38;6.28;;;11.10;52.70;;;;;;6217932;23;20431;-76
2021/03/23 11:22:05;;;;;;;12.10;5.85;;;11.10;51.00;;;;;;6217972;23;20451;-75
2021/03/23 11:24:32;;;;;;;10.00;5.60;;;11.00;50.80;;;;;;6245760;23;20004;-76
2021/03/23 11:27:00;;;;;;;9.13;4.68;;;11.10;50.30;;;;;;6218038;23;20007;-77
2021/03/23 11:29:26;;;;;;;10.18;4.97;;;11.20;50.00;;;;;;6218838;23;20001;-77
2021/03/23 11:31:53;;;;;;;10.38;5.15;;;11.10;49.40;;;;;;6245522;23;20073;-76
2021/03/23 11:34:18;;;;;;;10.23;5.35;;;11.10;49.70;;;;;;6245211;23;20000;-77
2021/03/23 11:36:44;;;;;;;11.25;5.07;;;11.10;50.00;;;;;;6218571;23;20000;-76
2021/03/23 11:39:10;;;;;;;10.27;4.90;;;11.10;50.10;;;;;;6217737;23;20010;-77
2021/03/23 11:41:40;;;;;;;10.32;5.40;;;11.10;50.00;;;;;;6218949;23;20000;-75
2021/03/23 11:44:27;;;;;;;10.38;4.93;;;11.20;50.10;;;;;;6217827;23;20070;-76
2021/03/23 11:46:58;;;;;;;9.05;5.20;;;11.10;50.20;;;;;;6217693;23;20012;-76
2021/03/23 11:49:50;;;;;;;9.65;5.03;;;11.10;50.90;;;;;;6217871;23;20004;-76
2021/03/23 11:52:16;;;;;;;11.55;5.38;;;11.10;50.40;;;;;;6217934;23;20016;-77
2021/03/23 11:54:42;;;;;;;12.48;5.47;;;11.10;51.30;;;;;;6218974;23;20004;-78
2021/03/23 11:57:08;;;;;;;9.45;5.38;;;11.20;51.30;;;;;;6243779;23;20010;-76
2021/03/23 11:59:34;;;;;;;10.95;5.15;;;11.10;49.50;;;;;;6217661;23;19996;-76
2021/03/23 12:02:00;;;;;;;12.40;5.72;;;11.10;50.00;;;;;;6217579;23;20062;-77
2021/03/23 12:04:26;;;;;;;10.80;5.68;;;11.00;50.10;;;;;;6218917;23;20373;-76
2021/03/23 12:07:05;;;;;;;10.00;4.70;;;11.00;51.00;;;;;;6244862;23;20034;-78
2021/03/23 12:09:48;;;;;;;9.40;5.22;;;11.10;50.90;;;;;;6245101;23;19997;-77
2021/03/23 12:12:24;;;;;;;9.63;5.38;;;11.10;50.50;;;;;;6217384;23;20003;-76
2021/03/23 12:15:10;;;;;;;10.57;5.13;;;11.20;49.70;;;;;;6218601;23;20012;-77
2021/03/23 12:17:39;;;;;;;10.55;5.18;;;11.30;49.60;;;;;;6245219;23;20004;-76
2021/03/23 12:20:19;;;;;;;7.85;4.50;;;11.10;49.20;;;;;;6217890;23;20032;-76
2021/03/23 12:22:50;;;;;;;8.27;4.80;;;10.80;49.60;;;;;;6245624;23;19996;-77
2021/03/23 12:25:18;;;;;;;9.27;5.25;;;10.90;50.20;;;;;;6218422;23;20015;-76
2021/03/23 12:27:44;;;;;;;11.70;4.50;;;11.00;50.20;;;;;;6218592;23;20332;-76
2021/03/23 12:30:10;;;;;;;10.93;4.70;;;11.00;50.20;;;;;;6244224;23;20331;-75
2021/03/23 12:32:36;;;;;;;10.50;4.95;;;11.00;50.40;;;;;;6217966;23;20117;-75
2021/03/23 12:35:08;;;;;;;8.65;3.72;;;10.90;51.30;;;;;;6243420;23;19996;-74
2021/03/23 12:37:34;;;;;;;;;;;10.90;51.20;;;;;;6218874;23;20114;-75
2021/03/23 12:40:00;;;;;;;10.30;4.43;;;10.90;51.00;;;;;;6244348;23;19900;-75
2021/03/23 12:42:28;;;;;;;10.13;4.80;;;10.90;52.00;;;;;;6217741;23;20039;-75
2021/03/23 12:44:54;;;;;;;8.95;4.80;;;10.90;52.20;;;;;;6216743;23;20046;-76
2021/03/23 12:47:20;;;;;;;7.93;4.32;;;10.90;52.10;;;;;;6244723;22;20423;-75
2021/03/23 12:49:45;;;;;;;10.43;4.53;;;10.90;51.30;;;;;;6245776;23;20058;-78
2021/03/23 12:52:17;;;;;;;12.60;5.10;;;10.80;51.50;;;;;;6218318;23;20004;-77
2021/03/23 12:54:46;;;;;;;7.45;4.60;;;10.80;51.30;;;;;;6218882;23;20008;-75
2021/03/23 12:57:18;;;;;;;10.73;5.13;;;10.80;51.60;;;;;;6218252;23;20000;-77
2021/03/23 12:59:44;;;;;;;12.70;5.47;;;10.80;51.10;;;;;;6218731;23;20002;-75
2021/03/23 13:02:17;;;;;;;11.98;4.93;;;10.80;51.30;;;;;;6218182;23;20058;-77
2021/03/23 13:04:43;;;;;;;8.90;5.20;;;10.80;51.20;;;;;;6218895;23;20000;-81
2021/03/23 13:07:30;;;;;;;9.73;4.72;;;10.90;51.80;;;;;;6218840;23;20083;-79
2021/03/23 13:09:57;;;;;;;13.50;4.63;;;10.90;51.40;;;;;;6217961;23;20000;-78
2021/03/23 13:12:26;;;;;;;7.65;4.35;;;10.90;51.40;;;;;;6219502;23;19996;-80
2021/03/23 13:14:51;;;;;;;11.52;5.53;;;10.90;51.00;;;;;;6217619;23;19992;-78